createdAt,value
2024-01-20T00:00:09.989Z,30.05
2024-01-20T00:01:10.049Z,30.05
2024-01-20T00:02:10.120Z,30.06
2024-01-20T00:03:10.092Z,29.94
2024-01-20T00:04:10.124Z,30.01
2024-01-20T00:05:10.166Z,29.93
2024-01-20T00:06:10.176Z,29.95
2024-01-20T00:07:10.210Z,29.90
2024-01-20T00:08:10.216Z,30.02
2024-01-20T00:09:10.212Z,30.02
2024-01-20T00:10:10.224Z,30.04
2024-01-20T00:11:10.295Z,29.95
2024-01-20T00:12:10.219Z,30.01
2024-01-20T00:13:10.217Z,29.89
2024-01-20T00:14:10.304Z,29.92
2024-01-20T00:15:10.277Z,29.89
2024-01-20T00:16:10.244Z,29.98
2024-01-20T00:17:20.664Z,29.96
2024-01-20T00:18:11.601Z,29.93
2024-01-20T00:19:10.300Z,29.95
2024-01-20T00:20:10.779Z,29.91
2024-01-20T00:21:10.229Z,29.89
2024-01-20T00:22:10.231Z,29.88
2024-01-20T00:23:10.315Z,29.86
2024-01-20T00:24:10.238Z,29.91
2024-01-20T00:25:10.938Z,29.89
2024-01-20T00:26:10.291Z,29.92
2024-01-20T00:27:10.232Z,29.92
2024-01-20T00:28:10.252Z,29.95
2024-01-20T00:29:10.271Z,29.89
2024-01-20T00:30:10.249Z,29.95
2024-01-20T00:31:10.236Z,29.89
2024-01-20T00:32:10.384Z,29.96
2024-01-20T00:33:10.361Z,30.02
2024-01-20T00:34:10.295Z,29.97
2024-01-20T00:35:10.318Z,29.81
2024-01-20T00:36:10.272Z,29.89
2024-01-20T00:37:10.238Z,29.86
2024-01-20T00:38:10.333Z,29.77
2024-01-20T00:39:10.251Z,29.76
2024-01-20T00:40:10.277Z,29.78
2024-01-20T00:41:10.307Z,29.78
2024-01-20T00:42:10.332Z,29.74
2024-01-20T00:43:10.352Z,29.75
2024-01-20T00:44:10.419Z,29.76
2024-01-20T00:45:10.424Z,29.78
2024-01-20T00:46:10.437Z,29.79
2024-01-20T00:47:10.604Z,29.78
2024-01-20T00:48:10.549Z,29.83
2024-01-20T00:49:10.570Z,29.75
2024-01-20T00:50:10.562Z,29.76
2024-01-20T00:51:10.571Z,29.74
2024-01-20T00:52:10.602Z,29.75
2024-01-20T00:53:10.666Z,29.68
2024-01-20T00:54:10.664Z,29.72
2024-01-20T00:55:10.686Z,29.73
2024-01-20T00:56:10.791Z,29.73
2024-01-20T00:57:10.781Z,29.82
2024-01-20T00:58:10.801Z,29.82
2024-01-20T00:59:10.904Z,29.77
2024-01-20T01:00:10.859Z,29.80
2024-01-20T01:01:10.900Z,29.75
2024-01-20T01:02:11.875Z,29.71
2024-01-20T01:03:10.983Z,29.65
2024-01-20T01:04:10.982Z,29.61
2024-01-20T01:05:11.035Z,29.65
2024-01-20T01:06:11.040Z,29.73
2024-01-20T01:07:11.048Z,29.72
2024-01-20T01:08:11.138Z,29.75
2024-01-20T01:09:11.187Z,29.80
2024-01-20T01:10:11.149Z,29.71
2024-01-20T01:11:11.200Z,29.73
2024-01-20T01:12:11.223Z,29.67
2024-01-20T01:13:11.290Z,29.69
2024-01-20T01:14:11.354Z,29.77
2024-01-20T01:15:11.282Z,29.62
2024-01-20T01:16:11.332Z,29.73
2024-01-20T01:17:11.409Z,29.66
2024-01-20T01:18:11.417Z,29.73
2024-01-20T01:19:11.407Z,29.67
2024-01-20T01:20:11.479Z,29.63
2024-01-20T01:21:11.466Z,29.69
2024-01-20T01:22:11.523Z,29.66
2024-01-20T01:23:11.566Z,29.65
2024-01-20T01:24:11.595Z,29.62
2024-01-20T01:25:11.620Z,29.70
2024-01-20T01:26:11.744Z,29.67
2024-01-20T01:27:11.712Z,29.62
2024-01-20T01:28:11.712Z,29.67
2024-01-20T01:29:11.734Z,29.62
2024-01-20T01:30:11.808Z,29.59
2024-01-20T01:31:11.795Z,29.56
2024-01-20T01:32:11.928Z,29.58
2024-01-20T01:33:11.951Z,29.59
2024-01-20T01:34:11.943Z,29.60
2024-01-20T01:35:11.977Z,29.58
2024-01-20T01:36:11.962Z,29.58
2024-01-20T01:37:12.004Z,29.59
2024-01-20T01:38:12.157Z,29.64
2024-01-20T01:39:12.053Z,29.61
2024-01-20T01:40:12.091Z,29.58
2024-01-20T01:41:12.201Z,29.53
2024-01-20T01:42:12.160Z,29.56
2024-01-20T01:43:12.189Z,29.46
2024-01-20T01:44:12.284Z,29.46
2024-01-20T01:45:12.264Z,29.49
2024-01-20T01:46:12.304Z,29.55
2024-01-20T01:47:12.392Z,29.56
2024-01-20T01:48:12.429Z,29.52
2024-01-20T01:49:12.402Z,29.50
2024-01-20T01:50:12.459Z,29.46
2024-01-20T01:51:12.467Z,29.59
2024-01-20T01:52:12.516Z,29.52
2024-01-20T01:53:12.533Z,29.56
2024-01-20T01:54:12.588Z,29.50
2024-01-20T01:55:12.610Z,29.52
2024-01-20T01:56:12.661Z,29.44
2024-01-20T01:57:12.724Z,29.42
2024-01-20T01:58:13.385Z,29.49
2024-01-20T01:59:12.777Z,29.42
2024-01-20T02:00:12.841Z,29.40
2024-01-20T02:01:12.898Z,29.35
2024-01-20T02:02:12.881Z,29.40
2024-01-20T02:03:13.003Z,29.47
2024-01-20T02:04:13.034Z,29.47
2024-01-20T02:05:12.991Z,29.42
2024-01-20T02:06:13.093Z,29.43
2024-01-20T02:07:13.163Z,29.40
2024-01-20T02:08:13.103Z,29.33
2024-01-20T02:09:13.136Z,29.43
2024-01-20T02:10:13.167Z,29.42
2024-01-20T02:11:13.198Z,29.49
2024-01-20T02:12:13.254Z,29.47
2024-01-20T02:13:13.279Z,29.47
2024-01-20T02:14:13.339Z,29.47
2024-01-20T02:15:15.064Z,29.44
2024-01-20T02:16:13.506Z,29.40
2024-01-20T02:17:13.534Z,29.37
2024-01-20T02:18:13.674Z,29.33
2024-01-20T02:19:13.680Z,29.29
2024-01-20T02:20:13.688Z,29.33
2024-01-20T02:21:13.717Z,29.36
2024-01-20T02:22:13.789Z,29.35
2024-01-20T02:23:13.808Z,29.37
2024-01-20T02:24:13.898Z,29.38
2024-01-20T02:25:13.892Z,29.36
2024-01-20T02:26:13.929Z,29.36
2024-01-20T02:27:13.972Z,29.33
2024-01-20T02:28:14.037Z,29.32
2024-01-20T02:29:14.045Z,29.32
2024-01-20T02:30:14.111Z,29.40
2024-01-20T02:31:14.124Z,29.33
2024-01-20T02:32:14.176Z,29.34
2024-01-20T02:33:14.334Z,29.37
2024-01-20T02:34:14.381Z,29.30
2024-01-20T02:35:14.261Z,29.28
2024-01-20T02:36:14.395Z,29.32
2024-01-20T02:37:14.362Z,29.29
2024-01-20T02:38:14.419Z,29.25
2024-01-20T02:39:14.477Z,29.26
2024-01-20T02:40:14.515Z,29.23
2024-01-20T02:41:14.540Z,29.21
2024-01-20T02:42:14.600Z,29.27
2024-01-20T02:43:14.621Z,29.20
2024-01-20T02:44:14.687Z,29.29
2024-01-20T02:45:14.737Z,29.30
2024-01-20T02:46:14.759Z,29.35
2024-01-20T02:47:14.808Z,29.26
2024-01-20T02:48:17.273Z,29.19
2024-01-20T02:49:14.923Z,29.25
2024-01-20T02:50:14.853Z,29.23
2024-01-20T02:51:14.877Z,29.22
2024-01-20T02:52:14.884Z,29.25
2024-01-20T02:53:14.911Z,29.32
2024-01-20T02:54:14.933Z,29.27
2024-01-20T02:55:14.847Z,29.32
2024-01-20T02:56:14.872Z,29.28
2024-01-20T02:57:14.877Z,29.31
2024-01-20T02:58:14.874Z,29.19
2024-01-20T02:59:14.858Z,29.27
2024-01-20T03:00:14.942Z,29.24
2024-01-20T03:01:14.915Z,29.20
2024-01-20T03:02:14.861Z,29.17
2024-01-20T03:03:14.961Z,29.12
2024-01-20T03:04:15.051Z,29.17
2024-01-20T03:05:14.898Z,29.23
2024-01-20T03:06:14.878Z,29.23
2024-01-20T03:07:14.885Z,29.21
2024-01-20T03:08:14.867Z,29.20
2024-01-20T03:09:14.928Z,29.17
2024-01-20T03:10:14.896Z,29.20
2024-01-20T03:11:14.881Z,29.24
2024-01-20T03:12:14.927Z,29.17
2024-01-20T03:13:14.882Z,29.22
2024-01-20T03:14:14.879Z,29.20
2024-01-20T03:15:14.985Z,29.17
2024-01-20T03:16:14.889Z,29.10
2024-01-20T03:17:14.893Z,29.18
2024-01-20T03:18:14.946Z,29.20
2024-01-20T03:19:14.941Z,29.23
2024-01-20T03:20:14.900Z,29.14
2024-01-20T03:21:14.924Z,29.21
2024-01-20T03:22:14.943Z,29.08
2024-01-20T03:23:14.990Z,29.11
2024-01-20T03:24:15.073Z,29.15
2024-01-20T03:25:15.109Z,29.14
2024-01-20T03:26:15.162Z,29.18
2024-01-20T03:27:15.272Z,29.13
2024-01-20T03:28:15.256Z,29.13
2024-01-20T03:29:15.336Z,29.10
2024-01-20T03:30:15.356Z,29.04
2024-01-20T03:31:15.415Z,29.06
2024-01-20T03:32:15.449Z,29.04
2024-01-20T03:33:15.624Z,29.07
2024-01-20T03:34:15.623Z,28.97
2024-01-20T03:35:15.588Z,29.07
2024-01-20T03:36:15.662Z,29.04
2024-01-20T03:37:15.696Z,29.10
2024-01-20T03:38:15.734Z,29.06
2024-01-20T03:39:15.830Z,29.04
2024-01-20T03:40:15.834Z,29.07
2024-01-20T03:41:15.891Z,29.04
2024-01-20T03:42:16.005Z,29.06
2024-01-20T03:43:15.997Z,29.08
2024-01-20T03:44:16.044Z,29.11
2024-01-20T03:45:16.142Z,28.96
2024-01-20T03:46:16.133Z,29.03
2024-01-20T03:47:16.198Z,29.06
2024-01-20T03:48:16.372Z,28.99
2024-01-20T03:49:16.490Z,29.03
2024-01-20T03:50:16.443Z,29.03
2024-01-20T03:51:16.462Z,29.07
2024-01-20T03:52:16.470Z,29.08
2024-01-20T03:53:16.516Z,28.97
2024-01-20T03:54:16.567Z,29.00
2024-01-20T03:55:16.617Z,29.01
2024-01-20T03:56:16.665Z,29.02
2024-01-20T03:57:18.626Z,29.01
2024-01-20T03:58:16.761Z,28.98
2024-01-20T03:59:16.829Z,28.96
2024-01-20T04:00:16.901Z,29.00
2024-01-20T04:01:16.978Z,28.91
2024-01-20T04:02:16.991Z,28.94
2024-01-20T04:03:17.126Z,28.85
2024-01-20T04:04:17.135Z,28.91
2024-01-20T04:05:17.173Z,28.86
2024-01-20T04:06:17.242Z,28.98
2024-01-20T04:07:17.291Z,28.96
2024-01-20T04:08:17.331Z,28.90
2024-01-20T04:09:17.432Z,28.97
2024-01-20T04:10:17.432Z,28.97
2024-01-20T04:11:18.775Z,28.94
2024-01-20T04:12:17.549Z,28.98
2024-01-20T04:13:17.598Z,28.98
2024-01-20T04:14:17.644Z,28.93
2024-01-20T04:15:17.740Z,28.87
2024-01-20T04:16:18.444Z,28.95
2024-01-20T04:17:17.816Z,28.90
2024-01-20T04:18:17.953Z,29.02
2024-01-20T04:19:18.057Z,29.02
2024-01-20T04:20:17.985Z,28.96
2024-01-20T04:21:18.065Z,28.90
2024-01-20T04:22:18.104Z,28.90
2024-01-20T04:23:18.164Z,28.85
2024-01-20T04:24:18.220Z,28.88
2024-01-20T04:25:18.253Z,28.90
2024-01-20T04:26:18.306Z,28.85
2024-01-20T04:27:18.417Z,28.80
2024-01-20T04:28:18.425Z,28.85
2024-01-20T04:29:18.499Z,28.91
2024-01-20T04:30:18.632Z,28.90
2024-01-20T04:31:18.612Z,28.79
2024-01-20T04:32:18.653Z,28.79
2024-01-20T04:33:18.813Z,28.77
2024-01-20T04:34:18.828Z,28.80
2024-01-20T04:35:26.594Z,28.84
2024-01-20T04:36:26.619Z,28.81
2024-01-20T04:37:26.576Z,28.79
2024-01-20T04:38:26.588Z,28.85
2024-01-20T04:39:26.626Z,28.76
2024-01-20T04:40:26.592Z,28.77
2024-01-20T04:41:26.594Z,28.81
2024-01-20T04:42:26.621Z,28.79
2024-01-20T04:43:26.582Z,28.87
2024-01-20T04:44:26.597Z,28.84
2024-01-20T04:45:26.618Z,28.89
2024-01-20T04:46:26.657Z,28.79
2024-01-20T04:47:26.638Z,28.74
2024-01-20T04:48:26.721Z,28.74
2024-01-20T04:49:26.665Z,28.71
2024-01-20T04:50:26.659Z,28.70
2024-01-20T04:51:26.741Z,28.66
2024-01-20T04:52:26.773Z,28.79
2024-01-20T04:53:26.805Z,28.70
2024-01-20T04:54:26.894Z,28.73
2024-01-20T04:55:26.887Z,28.79
2024-01-20T04:56:26.947Z,28.74
2024-01-20T04:57:27.036Z,28.85
2024-01-20T04:58:27.048Z,28.74
2024-01-20T04:59:27.093Z,28.77
2024-01-20T05:00:27.177Z,28.72
2024-01-20T05:01:27.216Z,28.68
2024-01-20T05:02:27.250Z,28.71
2024-01-20T05:03:27.355Z,28.71
2024-01-20T05:04:27.420Z,28.72
2024-01-20T05:05:27.401Z,28.65
2024-01-20T05:06:27.560Z,28.64
2024-01-20T05:07:27.514Z,28.77
2024-01-20T05:08:27.568Z,28.63
2024-01-20T05:09:27.665Z,28.69
2024-01-20T05:10:27.674Z,28.68
2024-01-20T05:11:27.729Z,28.69
2024-01-20T05:12:27.807Z,28.68
2024-01-20T05:13:27.836Z,28.64
2024-01-20T05:14:27.891Z,28.60
2024-01-20T05:15:27.982Z,28.62
2024-01-20T05:16:27.999Z,28.58
2024-01-20T05:17:28.092Z,28.51
2024-01-20T05:18:28.226Z,28.58
2024-01-20T05:19:28.341Z,28.56
2024-01-20T05:20:28.236Z,28.53
2024-01-20T05:21:28.318Z,28.54
2024-01-20T05:22:28.332Z,28.47
2024-01-20T05:23:28.381Z,28.54
2024-01-20T05:24:28.496Z,28.50
2024-01-20T05:25:28.491Z,28.57
2024-01-20T05:26:28.540Z,28.52
2024-01-20T05:27:28.669Z,28.57
2024-01-20T05:28:28.649Z,28.57
2024-01-20T05:29:28.681Z,28.54
2024-01-20T05:30:28.782Z,28.48
2024-01-20T05:31:28.792Z,28.52
2024-01-20T05:32:28.900Z,28.56
2024-01-20T05:33:28.981Z,28.52
2024-01-20T05:34:29.063Z,28.58
2024-01-20T05:35:29.029Z,28.59
2024-01-20T05:36:29.196Z,28.62
2024-01-20T05:37:29.125Z,28.59
2024-01-20T05:38:29.185Z,28.58
2024-01-20T05:39:29.363Z,28.58
2024-01-20T05:40:29.269Z,28.52
2024-01-20T05:41:29.326Z,28.55
2024-01-20T05:42:29.547Z,28.58
2024-01-20T05:43:29.440Z,28.47
2024-01-20T05:44:29.520Z,28.58
2024-01-20T05:45:29.598Z,28.55
2024-01-20T05:46:29.596Z,28.56
2024-01-20T05:47:29.671Z,28.50
2024-01-20T05:48:29.787Z,28.51
2024-01-20T05:49:29.852Z,28.44
2024-01-20T05:50:29.833Z,28.44
2024-01-20T05:51:29.912Z,28.55
2024-01-20T05:52:29.943Z,28.58
2024-01-20T05:53:30.004Z,28.51
2024-01-20T05:54:30.095Z,28.59
2024-01-20T05:55:30.123Z,28.51
2024-01-20T05:56:30.207Z,28.58
2024-01-20T05:57:30.262Z,28.53
2024-01-20T05:58:30.307Z,28.55
2024-01-20T05:59:30.361Z,28.52
2024-01-20T06:00:30.480Z,28.53
2024-01-20T06:01:30.498Z,28.47
2024-01-20T06:02:30.548Z,28.47
2024-01-20T06:03:30.655Z,28.52
2024-01-20T06:04:30.772Z,28.48
2024-01-20T06:05:30.713Z,28.50
2024-01-20T06:06:30.840Z,28.52
2024-01-20T06:07:30.823Z,28.56
2024-01-20T06:08:30.894Z,28.44
2024-01-20T06:09:30.998Z,28.44
2024-01-20T06:10:31.043Z,28.42
2024-01-20T06:11:31.047Z,28.49
2024-01-20T06:12:31.207Z,28.44
2024-01-20T06:13:31.169Z,28.49
2024-01-20T06:14:31.251Z,28.44
2024-01-20T06:15:31.395Z,28.46
2024-01-20T06:16:31.357Z,28.46
2024-01-20T06:17:31.429Z,28.45
2024-01-20T06:18:31.502Z,28.46
2024-01-20T06:19:31.562Z,28.47
2024-01-20T06:20:31.610Z,28.47
2024-01-20T06:21:31.685Z,28.41
2024-01-20T06:22:31.687Z,28.47
2024-01-20T06:23:31.742Z,28.44
2024-01-20T06:24:31.960Z,28.45
2024-01-20T06:25:31.858Z,28.46
2024-01-20T06:26:31.920Z,28.55
2024-01-20T06:27:32.026Z,28.45
2024-01-20T06:28:32.031Z,28.38
2024-01-20T06:29:32.090Z,28.35
2024-01-20T06:30:32.244Z,28.40
2024-01-20T06:31:32.205Z,28.40
2024-01-20T06:32:32.335Z,28.35
2024-01-20T06:33:32.441Z,28.40
2024-01-20T06:34:32.454Z,28.42
2024-01-20T06:35:32.439Z,28.40
2024-01-20T06:36:32.588Z,28.38
2024-01-20T06:37:32.569Z,28.40
2024-01-20T06:38:32.612Z,28.43
2024-01-20T06:39:32.706Z,28.39
2024-01-20T06:40:32.747Z,28.35
2024-01-20T06:41:32.785Z,28.43
2024-01-20T06:42:32.877Z,28.39
2024-01-20T06:43:32.896Z,28.40
2024-01-20T06:44:33.301Z,28.46
2024-01-20T06:45:33.005Z,28.49
2024-01-20T06:46:33.071Z,28.54
2024-01-20T06:47:33.156Z,28.60
2024-01-20T06:48:33.359Z,28.58
2024-01-20T06:49:33.439Z,28.57
2024-01-20T06:50:33.320Z,28.58
2024-01-20T06:51:33.413Z,28.68
2024-01-20T06:52:33.445Z,28.58
2024-01-20T06:53:33.481Z,28.57
2024-01-20T06:54:33.635Z,28.64
2024-01-20T06:55:33.604Z,28.68
2024-01-20T06:56:33.666Z,28.69
2024-01-20T06:57:33.826Z,28.65
2024-01-20T06:58:33.767Z,28.58
2024-01-20T06:59:33.801Z,28.64
2024-01-20T07:00:33.995Z,28.60
2024-01-20T07:01:33.917Z,28.48
2024-01-20T07:02:33.970Z,28.54
2024-01-20T07:03:34.117Z,28.54
2024-01-20T07:04:34.123Z,28.47
2024-01-20T07:05:34.206Z,28.50
2024-01-20T07:06:34.262Z,28.52
2024-01-20T07:07:34.286Z,28.51
2024-01-20T07:08:34.350Z,28.41
2024-01-20T07:09:34.439Z,28.46
2024-01-20T07:10:34.453Z,28.39
2024-01-20T07:11:34.510Z,28.41
2024-01-20T07:12:34.661Z,28.36
2024-01-20T07:13:34.602Z,28.37
2024-01-20T07:14:34.669Z,28.37
2024-01-20T07:15:34.706Z,28.36
2024-01-20T07:16:34.760Z,28.28
2024-01-20T07:17:34.819Z,28.33
2024-01-20T07:18:34.921Z,28.33
2024-01-20T07:19:34.958Z,28.33
2024-01-20T07:20:34.998Z,28.36
2024-01-20T07:21:35.092Z,28.34
2024-01-20T07:22:35.085Z,28.39
2024-01-20T07:23:35.165Z,28.37
2024-01-20T07:24:35.286Z,28.34
2024-01-20T07:25:35.257Z,28.41
2024-01-20T07:26:35.302Z,28.39
2024-01-20T07:27:35.400Z,28.36
2024-01-20T07:28:35.437Z,28.31
2024-01-20T07:29:35.496Z,28.31
2024-01-20T07:30:35.854Z,28.22
2024-01-20T07:31:35.583Z,28.27
2024-01-20T07:32:35.666Z,28.33
2024-01-20T07:33:35.800Z,28.20
2024-01-20T07:34:35.810Z,28.26
2024-01-20T07:35:35.810Z,28.22
2024-01-20T07:36:35.911Z,28.29
2024-01-20T07:37:35.895Z,28.19
2024-01-20T07:38:35.962Z,28.22
2024-01-20T07:39:36.043Z,28.19
2024-01-20T07:40:36.061Z,28.22
2024-01-20T07:41:36.099Z,28.22
2024-01-20T07:42:36.342Z,28.19
2024-01-20T07:43:36.223Z,28.19
2024-01-20T07:44:36.280Z,28.22
2024-01-20T07:45:36.365Z,28.20
2024-01-20T07:46:36.373Z,28.19
2024-01-20T07:47:36.442Z,28.20
2024-01-20T07:48:36.607Z,28.19
2024-01-20T07:49:36.626Z,28.16
2024-01-20T07:50:36.580Z,28.17
2024-01-20T07:51:36.733Z,28.23
2024-01-20T07:52:40.079Z,28.16
2024-01-20T07:53:36.691Z,28.14
2024-01-20T07:54:36.863Z,28.22
2024-01-20T07:55:36.685Z,28.24
2024-01-20T07:56:36.685Z,28.23
2024-01-20T07:57:36.789Z,28.22
2024-01-20T07:58:36.698Z,28.25
2024-01-20T07:59:36.686Z,28.25
2024-01-20T08:00:36.882Z,28.20
2024-01-20T08:01:36.737Z,28.21
2024-01-20T08:02:36.697Z,28.19
2024-01-20T08:03:36.802Z,28.19
2024-01-20T08:04:36.883Z,28.14
2024-01-20T08:05:36.696Z,28.22
2024-01-20T08:06:36.779Z,28.17
2024-01-20T08:07:36.699Z,28.16
2024-01-20T08:08:36.719Z,28.20
2024-01-20T08:09:36.787Z,28.17
2024-01-20T08:10:36.714Z,28.11
2024-01-20T08:11:36.688Z,28.07
2024-01-20T08:12:36.843Z,28.07
2024-01-20T08:13:36.701Z,28.07
2024-01-20T08:14:36.708Z,28.03
2024-01-20T08:15:36.857Z,28.03
2024-01-20T08:16:36.700Z,28.03
2024-01-20T08:17:36.724Z,28.07
2024-01-20T08:18:36.865Z,28.07
2024-01-20T08:19:36.766Z,28.06
2024-01-20T08:20:36.716Z,28.02
2024-01-20T08:21:36.743Z,28.07
2024-01-20T08:22:36.724Z,28.07
2024-01-20T08:23:36.716Z,28.07
2024-01-20T08:24:36.774Z,28.17
2024-01-20T08:25:36.780Z,28.13
2024-01-20T08:26:36.841Z,28.06
2024-01-20T08:27:36.964Z,28.02
2024-01-20T08:28:36.955Z,28.04
2024-01-20T08:29:37.008Z,28.00
2024-01-20T08:30:37.131Z,28.06
2024-01-20T08:31:37.084Z,27.99
2024-01-20T08:32:37.197Z,28.02
2024-01-20T08:33:37.295Z,28.02
2024-01-20T08:34:38.520Z,28.00
2024-01-20T08:35:37.265Z,27.99
2024-01-20T08:36:37.334Z,28.03
2024-01-20T08:37:37.327Z,28.04
2024-01-20T08:38:37.387Z,28.00
2024-01-20T08:39:37.456Z,27.93
2024-01-20T08:40:37.457Z,27.99
2024-01-20T08:41:37.488Z,28.02
2024-01-20T08:42:37.572Z,28.07
2024-01-20T08:43:37.534Z,28.03
2024-01-20T08:44:37.571Z,27.99
2024-01-20T08:45:37.710Z,28.03
2024-01-20T08:46:37.742Z,27.91
2024-01-20T08:47:37.672Z,28.00
2024-01-20T08:48:37.751Z,27.93
2024-01-20T08:49:37.725Z,27.93
2024-01-20T08:50:37.794Z,27.99
2024-01-20T08:51:37.811Z,27.98
2024-01-20T08:52:37.842Z,27.94
2024-01-20T08:53:37.881Z,27.93
2024-01-20T08:54:38.031Z,27.96
2024-01-20T08:55:37.980Z,27.94
2024-01-20T08:56:38.055Z,27.94
2024-01-20T08:57:38.100Z,27.93
2024-01-20T08:58:38.110Z,27.97
2024-01-20T08:59:38.183Z,27.91
2024-01-20T09:00:38.293Z,27.90
2024-01-20T09:01:38.238Z,27.89
2024-01-20T09:02:38.283Z,27.87
2024-01-20T09:03:43.384Z,27.87
2024-01-20T09:04:38.321Z,27.83
2024-01-20T09:05:39.564Z,27.84
2024-01-20T09:06:38.454Z,27.90
2024-01-20T09:07:46.222Z,27.90
2024-01-20T09:08:46.213Z,27.85
2024-01-20T09:09:46.208Z,27.81
2024-01-20T09:10:46.220Z,27.84
2024-01-20T09:11:46.216Z,27.84
2024-01-20T09:12:46.227Z,27.80
2024-01-20T09:13:46.224Z,27.87
2024-01-20T09:14:46.243Z,27.84
2024-01-20T09:15:46.295Z,27.86
2024-01-20T09:16:46.234Z,27.85
2024-01-20T09:17:46.241Z,27.76
2024-01-20T09:18:46.407Z,27.82
2024-01-20T09:19:46.364Z,27.81
2024-01-20T09:20:46.250Z,27.77
2024-01-20T09:21:46.222Z,27.83
2024-01-20T09:22:46.229Z,27.80
2024-01-20T09:23:46.227Z,27.83
2024-01-20T09:24:46.275Z,27.80
2024-01-20T09:25:46.232Z,27.76
2024-01-20T09:26:46.239Z,27.84
2024-01-20T09:27:46.298Z,27.84
2024-01-20T09:28:46.331Z,27.80
2024-01-20T09:29:46.229Z,27.82
2024-01-20T09:30:46.287Z,27.85
2024-01-20T09:31:46.237Z,27.79
2024-01-20T09:32:46.298Z,27.87
2024-01-20T09:33:46.326Z,27.80
2024-01-20T09:34:46.287Z,27.80
2024-01-20T09:35:46.236Z,27.81
2024-01-20T09:36:46.393Z,27.80
2024-01-20T09:37:46.245Z,27.78
2024-01-20T09:38:46.264Z,27.81
2024-01-20T09:39:46.287Z,27.78
2024-01-20T09:40:46.258Z,27.81
2024-01-20T09:41:46.256Z,27.74
2024-01-20T09:42:46.282Z,27.80
2024-01-20T09:43:46.260Z,27.81
2024-01-20T09:44:46.250Z,27.76
2024-01-20T09:45:46.319Z,27.77
2024-01-20T09:46:46.262Z,27.78
2024-01-20T09:47:46.322Z,27.74
2024-01-20T09:48:46.544Z,27.78
2024-01-20T09:49:46.346Z,27.77
2024-01-20T09:50:46.273Z,27.74
2024-01-20T09:51:46.280Z,27.71
2024-01-20T09:52:46.300Z,27.74
2024-01-20T09:53:56.514Z,27.80
2024-01-20T09:54:46.383Z,27.78
2024-01-20T09:55:46.364Z,27.73
2024-01-20T09:56:46.339Z,27.71
2024-01-20T09:57:46.328Z,27.76
2024-01-20T09:58:46.346Z,27.76
2024-01-20T09:59:46.342Z,27.74
2024-01-20T10:00:46.448Z,27.74
2024-01-20T10:01:46.459Z,27.71
2024-01-20T10:02:46.386Z,27.70
2024-01-20T10:03:46.397Z,27.71
2024-01-20T10:04:46.459Z,27.67
2024-01-20T10:05:46.446Z,27.71
2024-01-20T10:06:46.380Z,27.67
2024-01-20T10:07:46.354Z,27.67
2024-01-20T10:08:46.362Z,27.70
2024-01-20T10:09:46.351Z,27.70
2024-01-20T10:10:46.350Z,27.75
2024-01-20T10:11:46.349Z,27.75
2024-01-20T10:12:46.363Z,27.67
2024-01-20T10:13:46.356Z,27.66
2024-01-20T10:14:46.384Z,27.64
2024-01-20T10:15:46.455Z,27.69
2024-01-20T10:16:46.375Z,27.71
2024-01-20T10:17:46.379Z,27.71
2024-01-20T10:18:46.384Z,27.73
2024-01-20T10:19:46.415Z,27.67
2024-01-20T10:20:48.766Z,27.66
2024-01-20T10:21:46.402Z,27.65
2024-01-20T10:22:46.390Z,27.63
2024-01-20T10:23:46.368Z,27.65
2024-01-20T10:24:46.394Z,27.67
2024-01-20T10:25:46.377Z,27.65
2024-01-20T10:26:46.381Z,27.66
2024-01-20T10:27:46.418Z,27.63
2024-01-20T10:28:51.421Z,27.64
2024-01-20T10:29:46.392Z,27.64
2024-01-20T10:30:46.655Z,27.64
2024-01-20T10:31:46.394Z,27.64
2024-01-20T10:32:57.153Z,27.66
2024-01-20T10:33:57.651Z,27.65
2024-01-20T10:34:46.672Z,27.64
2024-01-20T10:35:46.403Z,27.66
2024-01-20T10:36:46.407Z,27.64
2024-01-20T10:37:46.435Z,27.67
2024-01-20T10:38:46.471Z,27.64
2024-01-20T10:39:46.493Z,27.65
2024-01-20T10:40:46.669Z,27.71
2024-01-20T10:41:46.543Z,27.68
2024-01-20T10:42:46.582Z,27.67
2024-01-20T10:43:46.603Z,27.66
2024-01-20T10:44:46.636Z,27.64
2024-01-20T10:45:46.666Z,27.64
2024-01-20T10:46:46.726Z,27.68
2024-01-20T10:47:46.756Z,27.61
2024-01-20T10:48:46.858Z,27.65
2024-01-20T10:49:46.970Z,27.61
2024-01-20T10:50:46.831Z,27.66
2024-01-20T10:51:46.936Z,27.56
2024-01-20T10:52:46.899Z,27.68
2024-01-20T10:53:46.929Z,27.63
2024-01-20T10:54:47.024Z,27.64
2024-01-20T10:55:46.993Z,27.63
2024-01-20T10:56:47.039Z,27.66
2024-01-20T10:57:47.041Z,27.67
2024-01-20T10:58:47.069Z,27.66
2024-01-20T10:59:47.114Z,27.61
2024-01-20T11:00:47.217Z,27.66
2024-01-20T11:01:47.161Z,27.63
2024-01-20T11:02:47.262Z,27.67
2024-01-20T11:03:47.328Z,27.66
2024-01-20T11:04:47.313Z,27.63
2024-01-20T11:05:47.310Z,27.66
2024-01-20T11:06:47.339Z,27.62
2024-01-20T11:07:47.351Z,27.64
2024-01-20T11:08:47.394Z,27.56
2024-01-20T11:09:47.432Z,27.60
2024-01-20T11:10:47.465Z,27.62
2024-01-20T11:11:47.484Z,27.59
2024-01-20T11:12:47.526Z,27.69
2024-01-20T11:13:47.537Z,27.60
2024-01-20T11:14:47.589Z,27.67
2024-01-20T11:15:47.616Z,27.65
2024-01-20T11:16:47.658Z,27.66
2024-01-20T11:17:47.731Z,27.60
2024-01-20T11:18:47.817Z,27.63
2024-01-20T11:19:47.833Z,27.62
2024-01-20T11:20:47.805Z,27.66
2024-01-20T11:21:47.872Z,27.63
2024-01-20T11:22:47.923Z,27.60
2024-01-20T11:23:47.943Z,27.63
2024-01-20T11:24:48.113Z,27.56
2024-01-20T11:25:48.102Z,27.59
2024-01-20T11:26:48.108Z,27.58
2024-01-20T11:27:48.141Z,27.60
2024-01-20T11:28:48.164Z,27.60
2024-01-20T11:29:48.213Z,27.59
2024-01-20T11:30:48.379Z,27.63
2024-01-20T11:31:48.309Z,27.64
2024-01-20T11:32:48.375Z,27.59
2024-01-20T11:33:48.516Z,27.65
2024-01-20T11:34:48.540Z,27.58
2024-01-20T11:35:48.476Z,27.57
2024-01-20T11:36:48.544Z,27.62
2024-01-20T11:37:48.556Z,27.58
2024-01-20T11:38:48.605Z,27.61
2024-01-20T11:39:48.683Z,27.57
2024-01-20T11:40:48.705Z,27.58
2024-01-20T11:41:48.762Z,27.54
2024-01-20T11:42:48.842Z,27.56
2024-01-20T11:43:48.863Z,27.56
2024-01-20T11:44:48.922Z,27.60
2024-01-20T11:45:49.038Z,27.60
2024-01-20T11:46:48.988Z,27.58
2024-01-20T11:47:49.077Z,27.53
2024-01-20T11:48:49.405Z,27.57
2024-01-20T11:49:49.239Z,27.54
2024-01-20T11:50:49.191Z,27.62
2024-01-20T11:51:49.254Z,27.63
2024-01-20T11:52:49.285Z,27.60
2024-01-20T11:53:49.334Z,27.60
2024-01-20T11:54:49.409Z,27.57
2024-01-20T11:55:49.444Z,27.56
2024-01-20T11:56:49.489Z,27.63
2024-01-20T11:57:49.631Z,27.57
2024-01-20T11:58:49.663Z,27.60
2024-01-20T11:59:49.677Z,27.60
2024-01-20T12:00:49.800Z,27.61
2024-01-20T12:01:49.914Z,27.63
2024-01-20T12:02:49.809Z,27.57
2024-01-20T12:03:49.992Z,27.63
2024-01-20T12:04:49.976Z,27.61
2024-01-20T12:05:50.040Z,27.64
2024-01-20T12:06:50.105Z,27.61
2024-01-20T12:07:50.120Z,27.63
2024-01-20T12:08:50.156Z,27.60
2024-01-20T12:09:50.237Z,27.63
2024-01-20T12:10:50.271Z,27.61
2024-01-20T12:11:50.351Z,27.66
2024-01-20T12:12:50.388Z,27.65
2024-01-20T12:13:50.474Z,27.64
2024-01-20T12:14:50.512Z,27.64
2024-01-20T12:15:50.608Z,27.63
2024-01-20T12:16:50.650Z,27.66
2024-01-20T12:17:50.802Z,27.69
2024-01-20T12:18:50.904Z,27.63
2024-01-20T12:19:50.905Z,27.65
2024-01-20T12:20:50.848Z,27.70
2024-01-20T12:21:50.916Z,27.67
2024-01-20T12:22:50.963Z,27.64
2024-01-20T12:23:51.017Z,27.60
2024-01-20T12:24:51.079Z,27.62
2024-01-20T12:25:51.141Z,27.66
2024-01-20T12:26:51.205Z,27.71
2024-01-20T12:27:51.249Z,27.67
2024-01-20T12:28:51.282Z,27.69
2024-01-20T12:29:51.357Z,27.67
2024-01-20T12:30:51.406Z,27.69
2024-01-20T12:31:51.473Z,27.66
2024-01-20T12:32:51.550Z,27.68
2024-01-20T12:33:51.683Z,27.65
2024-01-20T12:34:51.663Z,27.61
2024-01-20T12:35:51.704Z,27.62
2024-01-20T12:36:51.737Z,27.64
2024-01-20T12:37:51.813Z,27.65
2024-01-20T12:38:51.849Z,27.61
2024-01-20T12:39:51.898Z,27.61
2024-01-20T12:40:51.938Z,27.62
2024-01-20T12:41:52.011Z,27.64
2024-01-20T12:42:52.053Z,27.61
2024-01-20T12:43:52.102Z,27.62
2024-01-20T12:44:52.105Z,27.63
2024-01-20T12:45:52.137Z,27.62
2024-01-20T12:46:52.149Z,27.57
2024-01-20T12:47:52.182Z,27.60
2024-01-20T12:48:52.391Z,27.58
2024-01-20T12:49:52.338Z,27.60
2024-01-20T12:50:52.329Z,27.61
2024-01-20T12:51:52.497Z,27.58
2024-01-20T12:52:52.544Z,27.60